sensor_id;sensor_type;location;lat;lon;timestamp;pressure;altitude;pressure_sealevel;temperature;humidity
50103;BME280;35993;52.604;10.078;2023-07-24T00:01:27;100077.22;;;19.88;100.00
50103;BME280;35993;52.604;10.078;2023-07-24T00:03:53;100074.50;;;20.07;100.00
50103;BME280;35993;52.604;10.078;2023-07-24T00:06:20;100067.06;;;20.08;100.00
50103;BME280;35993;52.604;10.078;2023-07-24T00:08:45;100073.69;;;20.07;100.00
50103;BME280;35993;52.604;10.078;2023-07-24T00:11:11;100070.09;;;20.06;100.00
50103;BME280;35993;52.604;10.078;2023-07-24T00:13:36;100069.34;;;20.01;100.00
50103;BME280;35993;52.604;10.078;2023-07-24T00:16:08;100067.22;;;19.97;100.00
50103;BME280;35993;52.604;10.078;2023-07-24T00:18:34;100071.38;;;20.14;100.00
50103;BME280;35993;52.604;10.078;2023-07-24T00:21:00;100062.44;;;20.22;100.00
50103;BME280;35993;52.604;10.078;2023-07-24T00:23:25;100050.97;;;20.15;100.00
50103;BME280;35993;52.604;10.078;2023-07-24T00:25:51;100048.22;;;20.15;100.00
50103;BME280;35993;52.604;10.078;2023-07-24T00:28:16;100049.69;;;20.07;99.37
50103;BME280;35993;52.604;10.078;2023-07-24T00:30:42;100056.78;;;20.13;100.00
50103;BME280;35993;52.604;10.078;2023-07-24T00:33:08;100053.63;;;20.01;100.00
50103;BME280;35993;52.604;10.078;2023-07-24T00:35:33;100059.75;;;20.17;100.00
50103;BME280;35993;52.604;10.078;2023-07-24T00:37:59;100057.81;;;20.18;100.00
50103;BME280;35993;52.604;10.078;2023-07-24T00:40:25;100059.06;;;20.25;100.00
50103;BME280;35993;52.604;10.078;2023-07-24T00:42:50;100053.56;;;20.25;100.00
50103;BME280;35993;52.604;10.078;2023-07-24T00:45:16;100053.56;;;20.25;100.00
50103;BME280;35993;52.604;10.078;2023-07-24T00:47:45;100045.91;;;20.22;98.69
50103;BME280;35993;52.604;10.078;2023-07-24T00:50:11;100042.34;;;20.22;100.00
50103;BME280;35993;52.604;10.078;2023-07-24T00:52:39;100050.66;;;20.17;100.00
50103;BME280;35993;52.604;10.078;2023-07-24T00:55:05;100059.00;;;20.11;100.00
50103;BME280;35993;52.604;10.078;2023-07-24T00:57:32;100056.78;;;20.13;100.00
50103;BME280;35993;52.604;10.078;2023-07-24T00:59:57;100055.91;;;20.18;100.00
50103;BME280;35993;52.604;10.078;2023-07-24T01:02:23;100053.47;;;20.11;100.00
50103;BME280;35993;52.604;10.078;2023-07-24T01:04:49;100047.41;;;20.14;100.00
50103;BME280;35993;52.604;10.078;2023-07-24T01:07:14;100050.72;;;20.11;100.00
50103;BME280;35993;52.604;10.078;2023-07-24T01:09:42;100051.09;;;19.86;100.00
50103;BME280;35993;52.604;10.078;2023-07-24T01:12:15;100047.91;;;19.97;100.00
50103;BME280;35993;52.604;10.078;2023-07-24T01:14:47;100049.53;;;19.98;100.00
50103;BME280;35993;52.604;10.078;2023-07-24T01:17:15;100044.34;;;20.16;100.00
50103;BME280;35993;52.604;10.078;2023-07-24T01:19:49;100057.47;;;20.24;100.00
50103;BME280;35993;52.604;10.078;2023-07-24T01:22:39;100054.41;;;20.07;100.00
50103;BME280;35993;52.604;10.078;2023-07-24T01:27:43;100037.78;;;20.12;100.00
50103;BME280;35993;52.604;10.078;2023-07-24T01:30:10;100046.38;;;20.10;100.00
50103;BME280;35993;52.604;10.078;2023-07-24T01:32:36;100043.38;;;20.26;100.00
50103;BME280;35993;52.604;10.078;2023-07-24T01:35:03;100043.47;;;20.21;100.00
50103;BME280;35993;52.604;10.078;2023-07-24T01:37:30;100030.72;;;20.25;100.00
50103;BME280;35993;52.604;10.078;2023-07-24T01:39:56;100028.91;;;20.15;100.00
50103;BME280;35993;52.604;10.078;2023-07-24T01:42:23;100026.25;;;20.10;100.00
50103;BME280;35993;52.604;10.078;2023-07-24T01:44:54;100030.19;;;20.04;100.00
50103;BME280;35993;52.604;10.078;2023-07-24T01:47:20;100028.50;;;20.08;100.00
50103;BME280;35993;52.604;10.078;2023-07-24T01:49:47;100028.41;;;19.94;100.00
50103;BME280;35993;52.604;10.078;2023-07-24T01:52:13;100019.53;;;19.97;100.00
50103;BME280;35993;52.604;10.078;2023-07-24T01:54:38;100021.63;;;20.05;100.00
50103;BME280;35993;52.604;10.078;2023-07-24T01:57:04;100021.88;;;19.65;100.00
50103;BME280;35993;52.604;10.078;2023-07-24T01:59:30;100012.38;;;19.96;100.00
50103;BME280;35993;52.604;10.078;2023-07-24T02:01:56;100013.44;;;20.00;100.00
50103;BME280;35993;52.604;10.078;2023-07-24T02:04:21;100007.47;;;19.93;100.00
50103;BME280;35993;52.604;10.078;2023-07-24T02:06:49;100008.22;;;19.98;100.00
50103;BME280;35993;52.604;10.078;2023-07-24T02:09:15;100008.81;;;19.95;100.00
50103;BME280;35993;52.604;10.078;2023-07-24T02:11:41;100010.41;;;20.02;100.00
50103;BME280;35993;52.604;10.078;2023-07-24T02:14:07;100015.06;;;20.01;100.00
50103;BME280;35993;52.604;10.078;2023-07-24T02:16:32;100023.63;;;20.00;100.00
50103;BME280;35993;52.604;10.078;2023-07-24T02:18:58;100022.81;;;19.99;100.00
50103;BME280;35993;52.604;10.078;2023-07-24T02:21:23;100022.22;;;20.02;100.00
50103;BME280;35993;52.604;10.078;2023-07-24T02:23:49;100022.53;;;20.01;100.00
50103;BME280;35993;52.604;10.078;2023-07-24T02:26:14;100014.94;;;19.92;100.00
50103;BME280;35993;52.604;10.078;2023-07-24T02:28:40;100020.94;;;19.94;100.00
50103;BME280;35993;52.604;10.078;2023-07-24T02:31:05;100011.28;;;19.97;100.00
50103;BME280;35993;52.604;10.078;2023-07-24T02:33:31;100023.53;;;19.86;100.00
50103;BME280;35993;52.604;10.078;2023-07-24T02:35:56;100021.63;;;20.05;100.00
50103;BME280;35993;52.604;10.078;2023-07-24T02:38:22;100024.16;;;20.02;100.00
50103;BME280;35993;52.604;10.078;2023-07-24T02:40:48;100019.91;;;20.09;100.00
50103;BME280;35993;52.604;10.078;2023-07-24T02:43:13;100014.25;;;20.01;100.00
50103;BME280;35993;52.604;10.078;2023-07-24T02:45:39;100016.22;;;20.00;100.00
50103;BME280;35993;52.604;10.078;2023-07-24T02:48:05;100017.16;;;20.09;100.00
50103;BME280;35993;52.604;10.078;2023-07-24T02:50:30;100022.16;;;20.07;100.00
50103;BME280;35993;52.604;10.078;2023-07-24T02:52:56;100024.53;;;20.14;100.00
50103;BME280;35993;52.604;10.078;2023-07-24T02:55:21;100024.31;;;20.10;100.00
50103;BME280;35993;52.604;10.078;2023-07-24T02:57:47;100021.34;;;20.07;100.00
50103;BME280;35993;52.604;10.078;2023-07-24T03:00:13;100025.75;;;20.08;100.00
50103;BME280;35993;52.604;10.078;2023-07-24T03:02:39;100028.69;;;20.11;100.00
50103;BME280;35993;52.604;10.078;2023-07-24T03:05:05;100025.13;;;20.11;100.00
50103;BME280;35993;52.604;10.078;2023-07-24T03:07:31;100021.34;;;20.07;100.00
50103;BME280;35993;52.604;10.078;2023-07-24T03:09:57;100027.44;;;20.23;100.00
50103;BME280;35993;52.604;10.078;2023-07-24T03:12:22;100021.09;;;20.22;100.00
50103;BME280;35993;52.604;10.078;2023-07-24T03:14:48;100021.63;;;20.24;100.00
50103;BME280;35993;52.604;10.078;2023-07-24T03:17:14;100027.44;;;20.23;100.00
50103;BME280;35993;52.604;10.078;2023-07-24T03:19:41;100025.06;;;20.16;100.00
50103;BME280;35993;52.604;10.078;2023-07-24T03:22:07;100017.81;;;20.20;100.00
50103;BME280;35993;52.604;10.078;2023-07-24T03:24:33;100020.34;;;19.06;100.00
50103;BME280;35993;52.604;10.078;2023-07-24T03:26:59;100022.56;;;18.69;100.00
50103;BME280;35993;52.604;10.078;2023-07-24T03:29:26;100020.72;;;18.59;100.00
50103;BME280;35993;52.604;10.078;2023-07-24T03:31:51;100026.84;;;18.51;100.00
50103;BME280;35993;52.604;10.078;2023-07-24T03:34:17;100020.25;;;18.52;100.00
50103;BME280;35993;52.604;10.078;2023-07-24T03:36:43;100020.75;;;18.54;100.00
50103;BME280;35993;52.604;10.078;2023-07-24T03:39:11;100016.63;;;18.57;100.00
50103;BME280;35993;52.604;10.078;2023-07-24T03:41:38;100011.13;;;18.57;100.00
50103;BME280;35993;52.604;10.078;2023-07-24T03:44:04;100013.59;;;18.58;100.00
50103;BME280;35993;52.604;10.078;2023-07-24T03:46:31;100007.81;;;18.60;100.00
50103;BME280;35993;52.604;10.078;2023-07-24T03:48:57;100008.09;;;18.58;100.00
50103;BME280;35993;52.604;10.078;2023-07-24T03:51:22;100013.88;;;18.57;100.00
50103;BME280;35993;52.604;10.078;2023-07-24T03:53:48;100011.13;;;18.57;100.00
50103;BME280;35993;52.604;10.078;2023-07-24T03:56:13;100006.97;;;18.59;100.00
50103;BME280;35993;52.604;10.078;2023-07-24T03:58:39;100004.47;;;18.63;100.00
50103;BME280;35993;52.604;10.078;2023-07-24T04:01:05;99989.06;;;18.67;100.00
50103;BME280;35993;52.604;10.078;2023-07-24T04:03:31;99997.31;;;18.67;100.00
50103;BME280;35993;52.604;10.078;2023-07-24T04:05:57;99994.28;;;18.69;100.00
50103;BME280;35993;52.604;10.078;2023-07-24T04:08:22;99995.09;;;18.69;100.00
50103;BME280;35993;52.604;10.078;2023-07-24T04:10:48;99986.84;;;18.69;100.00
50103;BME280;35993;52.604;10.078;2023-07-24T04:13:13;99987.94;;;18.68;100.00
50103;BME280;35993;52.604;10.078;2023-07-24T04:15:39;99988.78;;;18.69;100.00
50103;BME280;35993;52.604;10.078;2023-07-24T04:18:05;99989.06;;;18.67;100.00
50103;BME280;35993;52.604;10.078;2023-07-24T04:20:30;99984.34;;;18.73;100.00
50103;BME280;35993;52.604;10.078;2023-07-24T04:22:56;99986.22;;;18.77;100.00
50103;BME280;35993;52.604;10.078;2023-07-24T04:25:22;99974.94;;;18.79;100.00
50103;BME280;35993;52.604;10.078;2023-07-24T04:27:47;99979.38;;;18.75;100.00
50103;BME280;35993;52.604;10.078;2023-07-24T04:30:13;99976.28;;;18.81;100.00
50103;BME280;35993;52.604;10.078;2023-07-24T04:32:38;99969.88;;;18.86;100.00
50103;BME280;35993;52.604;10.078;2023-07-24T04:35:04;99969.09;;;18.86;100.00
50103;BME280;35993;52.604;10.078;2023-07-24T04:37:30;99963.28;;;18.87;100.00
50103;BME280;35993;52.604;10.078;2023-07-24T04:39:56;99960.50;;;18.92;100.00
50103;BME280;35993;52.604;10.078;2023-07-24T04:42:21;99964.38;;;18.91;100.00
50103;BME280;35993;52.604;10.078;2023-07-24T04:44:47;99972.34;;;18.93;100.00
50103;BME280;35993;52.604;10.078;2023-07-24T04:47:12;99971.22;;;18.94;100.00
50103;BME280;35993;52.604;10.078;2023-07-24T04:49:38;99967.91;;;18.97;100.00
50103;BME280;35993;52.604;10.078;2023-07-24T04:52:04;99958.78;;;19.02;100.00
50103;BME280;35993;52.604;10.078;2023-07-24T04:54:29;99957.13;;;19.01;100.00
50103;BME280;35993;52.604;10.078;2023-07-24T04:56:55;99962.41;;;18.97;100.00
50103;BME280;35993;52.604;10.078;2023-07-24T04:59:20;99956.34;;;18.95;100.00
50103;BME280;35993;52.604;10.078;2023-07-24T05:01:46;99959.88;;;19.01;100.00
50103;BME280;35993;52.604;10.078;2023-07-24T05:04:11;99957.94;;;19.01;100.00
50103;BME280;35993;52.604;10.078;2023-07-24T05:06:37;99948.00;;;19.05;100.00
50103;BME280;35993;52.604;10.078;2023-07-24T05:09:04;99943.25;;;19.11;100.00
50103;BME280;35993;52.604;10.078;2023-07-24T05:11:29;99931.97;;;19.12;100.00
50103;BME280;35993;52.604;10.078;2023-07-24T05:13:55;99919.78;;;19.19;100.00
50103;BME280;35993;52.604;10.078;2023-07-24T05:16:20;99917.84;;;19.19;100.00
50103;BME280;35993;52.604;10.078;2023-07-24T05:18:46;99921.44;;;19.20;100.00
50103;BME280;35993;52.604;10.078;2023-07-24T05:21:11;99925.22;;;19.24;100.00
50103;BME280;35993;52.604;10.078;2023-07-24T05:23:37;99923.22;;;19.29;100.00
50103;BME280;35993;52.604;10.078;2023-07-24T05:26:03;99919.88;;;19.32;100.00
50103;BME280;35993;52.604;10.078;2023-07-24T05:28:30;99913.28;;;19.34;100.00
50103;BME280;35993;52.604;10.078;2023-07-24T05:31:03;99918.19;;;19.37;100.00
50103;BME280;35993;52.604;10.078;2023-07-24T05:33:29;99912.06;;;19.40;100.00
50103;BME280;35993;52.604;10.078;2023-07-24T05:36:02;99913.28;;;19.34;100.00
50103;BME280;35993;52.604;10.078;2023-07-24T05:38:28;99908.56;;;19.34;100.00
50103;BME280;35993;52.604;10.078;2023-07-24T05:40:58;99911.94;;;19.31;100.00
50103;BME280;35993;52.604;10.078;2023-07-24T05:43:24;99923.22;;;19.29;100.00
50103;BME280;35993;52.604;10.078;2023-07-24T05:45:51;99920.41;;;19.35;100.00
50103;BME280;35993;52.604;10.078;2023-07-24T05:48:16;99920.31;;;19.40;100.00
50103;BME280;35993;52.604;10.078;2023-07-24T05:50:42;99920.78;;;19.47;100.00
50103;BME280;35993;52.604;10.078;2023-07-24T05:53:08;99914.75;;;19.45;100.00
50103;BME280;35993;52.604;10.078;2023-07-24T05:55:33;99913.41;;;19.42;100.00
50103;BME280;35993;52.604;10.078;2023-07-24T05:57:59;99895.47;;;19.45;100.00
50103;BME280;35993;52.604;10.078;2023-07-24T06:00:25;99905.31;;;19.51;100.00
50103;BME280;35993;52.604;10.078;2023-07-24T06:02:51;99906.16;;;19.52;100.00
50103;BME280;35993;52.604;10.078;2023-07-24T06:05:16;99916.31;;;19.51;100.00
50103;BME280;35993;52.604;10.078;2023-07-24T06:07:42;99919.69;;;19.48;100.00
50103;BME280;35993;52.604;10.078;2023-07-24T06:10:07;99916.09;;;19.47;100.00
50103;BME280;35993;52.604;10.078;2023-07-24T06:12:33;99911.72;;;19.46;100.00
50103;BME280;35993;52.604;10.078;2023-07-24T06:14:59;99892.66;;;19.50;100.00
50103;BME280;35993;52.604;10.078;2023-07-24T06:17:25;99880.25;;;19.53;100.00
50103;BME280;35993;52.604;10.078;2023-07-24T06:19:50;99848.13;;;19.48;100.00
50103;BME280;35993;52.604;10.078;2023-07-24T06:22:16;99850.03;;;19.47;100.00
50103;BME280;35993;52.604;10.078;2023-07-24T06:24:41;99876.81;;;19.42;100.00
50103;BME280;35993;52.604;10.078;2023-07-24T06:27:07;99881.22;;;19.43;100.00
50103;BME280;35993;52.604;10.078;2023-07-24T06:29:33;99881.78;;;19.40;100.00
50103;BME280;35993;52.604;10.078;2023-07-24T06:31:58;99886.88;;;19.32;100.00
50103;BME280;35993;52.604;10.078;2023-07-24T06:34:24;99886.94;;;19.27;100.00
50103;BME280;35993;52.604;10.078;2023-07-24T06:36:49;99882.06;;;19.19;100.00
50103;BME280;35993;52.604;10.078;2023-07-24T06:39:15;99876.50;;;19.24;100.00
50103;BME280;35993;52.604;10.078;2023-07-24T06:41:41;99870.69;;;19.26;100.00
50103;BME280;35993;52.604;10.078;2023-07-24T06:44:07;99858.31;;;19.28;100.00
50103;BME280;35993;52.604;10.078;2023-07-24T06:46:32;99846.84;;;19.40;100.00
50103;BME280;35993;52.604;10.078;2023-07-24T06:48:58;99839.31;;;19.46;100.00
50103;BME280;35993;52.604;10.078;2023-07-24T06:51:24;99849.06;;;19.57;100.00
50103;BME280;35993;52.604;10.078;2023-07-24T06:53:49;99843.00;;;19.60;100.00
50103;BME280;35993;52.604;10.078;2023-07-24T06:56:15;99838.75;;;19.68;100.00
50103;BME280;35993;52.604;10.078;2023-07-24T06:58:40;99835.84;;;19.59;100.00
50103;BME280;35993;52.604;10.078;2023-07-24T07:01:06;99833.66;;;19.56;100.00
50103;BME280;35993;52.604;10.078;2023-07-24T07:03:32;99827.41;;;19.70;100.00
50103;BME280;35993;52.604;10.078;2023-07-24T07:06:00;99832.25;;;19.59;100.00
50103;BME280;35993;52.604;10.078;2023-07-24T07:08:26;99836.16;;;19.58;100.00
50103;BME280;35993;52.604;10.078;2023-07-24T07:10:59;99838.13;;;19.52;100.00
50103;BME280;35993;52.604;10.078;2023-07-24T07:13:26;99859.78;;;19.40;100.00
50103;BME280;35993;52.604;10.078;2023-07-24T07:15:52;99869.09;;;19.25;100.00
50103;BME280;35993;52.604;10.078;2023-07-24T07:18:17;99889.19;;;19.01;100.00
50103;BME280;35993;52.604;10.078;2023-07-24T07:20:51;99893.34;;;18.98;100.00
50103;BME280;35993;52.604;10.078;2023-07-24T07:23:17;99874.09;;;18.98;100.00
50103;BME280;35993;52.604;10.078;2023-07-24T07:25:43;99884.03;;;18.94;100.00
50103;BME280;35993;52.604;10.078;2023-07-24T07:28:11;99883.09;;;18.80;100.00
50103;BME280;35993;52.604;10.078;2023-07-24T07:30:37;99892.56;;;18.69;100.00
50103;BME280;35993;52.604;10.078;2023-07-24T07:33:02;99886.53;;;18.66;100.00
50103;BME280;35993;52.604;10.078;2023-07-24T07:35:28;99882.72;;;18.62;100.00
50103;BME280;35993;52.604;10.078;2023-07-24T07:37:54;99885.81;;;18.56;100.00
50103;BME280;35993;52.604;10.078;2023-07-24T07:40:19;99883.06;;;18.56;100.00
50103;BME280;35993;52.604;10.078;2023-07-24T07:42:45;99878.38;;;18.56;100.00
50103;BME280;35993;52.604;10.078;2023-07-24T07:45:11;99873.13;;;18.60;100.00
50103;BME280;35993;52.604;10.078;2023-07-24T07:47:36;99867.94;;;18.58;100.00
50103;BME280;35993;52.604;10.078;2023-07-24T07:50:03;99871.19;;;18.60;100.00
50103;BME280;35993;52.604;10.078;2023-07-24T07:52:29;99866.34;;;18.52;100.00
50103;BME280;35993;52.604;10.078;2023-07-24T07:54:55;99873.94;;;18.60;100.00
50103;BME280;35993;52.604;10.078;2023-07-24T07:57:20;99867.16;;;18.77;100.00
50103;BME280;35993;52.604;10.078;2023-07-24T07:59:46;99864.47;;;18.72;100.00
50103;BME280;35993;52.604;10.078;2023-07-24T08:02:11;99871.13;;;18.65;100.00
50103;BME280;35993;52.604;10.078;2023-07-24T08:04:37;99866.16;;;18.67;100.00
50103;BME280;35993;52.604;10.078;2023-07-24T08:07:03;99867.41;;;18.80;100.00
50103;BME280;35993;52.604;10.078;2023-07-24T08:09:29;99868.44;;;18.84;100.00
50103;BME280;35993;52.604;10.078;2023-07-24T08:11:55;99864.72;;;18.75;100.00
50103;BME280;35993;52.604;10.078;2023-07-24T08:14:20;99862.63;;;18.67;100.00
50103;BME280;35993;52.604;10.078;2023-07-24T08:16:49;99867.47;;;18.75;100.00
50103;BME280;35993;52.604;10.078;2023-07-24T08:19:14;99868.13;;;18.67;100.00
50103;BME280;35993;52.604;10.078;2023-07-24T08:21:40;99871.00;;;18.76;100.00
50103;BME280;35993;52.604;10.078;2023-07-24T08:24:06;99875.34;;;18.82;100.00
50103;BME280;35993;52.604;10.078;2023-07-24T08:26:32;99876.34;;;18.96;100.00
50103;BME280;35993;52.604;10.078;2023-07-24T08:28:57;99866.66;;;18.99;100.00
50103;BME280;35993;52.604;10.078;2023-07-24T08:31:23;99867.44;;;19.24;100.00
50103;BME280;35993;52.604;10.078;2023-07-24T08:33:48;99865.88;;;19.37;100.00
50103;BME280;35993;52.604;10.078;2023-07-24T08:36:14;99866.13;;;19.40;100.00
50103;BME280;35993;52.604;10.078;2023-07-24T08:38:40;99874.00;;;19.47;100.00
50103;BME280;35993;52.604;10.078;2023-07-24T08:41:08;99864.94;;;19.46;100.00
50103;BME280;35993;52.604;10.078;2023-07-24T08:43:35;99867.63;;;19.52;100.00
50103;BME280;35993;52.604;10.078;2023-07-24T08:46:02;99865.28;;;19.40;100.00
50103;BME280;35993;52.604;10.078;2023-07-24T08:48:30;99862.19;;;19.65;100.00
50103;BME280;35993;52.604;10.078;2023-07-24T08:50:56;99862.75;;;20.01;100.00
50103;BME280;35993;52.604;10.078;2023-07-24T08:53:23;99858.44;;;19.75;100.00
50103;BME280;35993;52.604;10.078;2023-07-24T08:55:51;99860.59;;;19.78;100.00
50103;BME280;35993;52.604;10.078;2023-07-24T08:58:17;99862.19;;;19.65;100.00
50103;BME280;35993;52.604;10.078;2023-07-24T09:00:43;99861.94;;;19.62;100.00
50103;BME280;35993;52.604;10.078;2023-07-24T09:03:09;99851.25;;;19.60;100.00
50103;BME280;35993;52.604;10.078;2023-07-24T09:05:35;99856.22;;;19.58;100.00
50103;BME280;35993;52.604;10.078;2023-07-24T09:08:01;99848.69;;;19.64;100.00
50103;BME280;35993;52.604;10.078;2023-07-24T09:10:26;99852.34;;;19.59;100.00
50103;BME280;35993;52.604;10.078;2023-07-24T09:12:52;99850.63;;;19.63;100.00
50103;BME280;35993;52.604;10.078;2023-07-24T09:15:18;99850.94;;;19.62;100.00
50103;BME280;35993;52.604;10.078;2023-07-24T09:17:50;99857.16;;;19.68;100.00
50103;BME280;35993;52.604;10.078;2023-07-24T09:20:17;99854.13;;;19.88;100.00
50103;BME280;35993;52.604;10.078;2023-07-24T09:22:53;99849.81;;;20.15;100.00
50103;BME280;35993;52.604;10.078;2023-07-24T09:25:30;99859.81;;;20.58;100.00
50103;BME280;35993;52.604;10.078;2023-07-24T09:27:58;99857.59;;;20.74;100.00
50103;BME280;35993;52.604;10.078;2023-07-24T09:30:23;99849.72;;;20.81;100.00
50103;BME280;35993;52.604;10.078;2023-07-24T09:32:53;99852.03;;;21.16;100.00
50103;BME280;35993;52.604;10.078;2023-07-24T09:35:20;99846.06;;;21.36;100.00
50103;BME280;35993;52.604;10.078;2023-07-24T09:37:47;99847.50;;;21.34;100.00
50103;BME280;35993;52.604;10.078;2023-07-24T09:40:14;99856.44;;;21.17;100.00
50103;BME280;35993;52.604;10.078;2023-07-24T09:42:40;99847.50;;;20.83;100.00
50103;BME280;35993;52.604;10.078;2023-07-24T09:45:07;99856.47;;;20.75;100.00
50103;BME280;35993;52.604;10.078;2023-07-24T09:47:35;99853.66;;;20.61;100.00
50103;BME280;35993;52.604;10.078;2023-07-24T09:50:04;99847.28;;;20.93;100.00
50103;BME280;35993;52.604;10.078;2023-07-24T09:52:31;99843.25;;;21.14;100.00
50103;BME280;35993;52.604;10.078;2023-07-24T09:57:34;99851.97;;;20.79;100.00
50103;BME280;35993;52.604;10.078;2023-07-24T10:00:01;99859.53;;;20.73;100.00
50103;BME280;35993;52.604;10.078;2023-07-24T10:02:31;99844.91;;;20.73;100.00
50103;BME280;35993;52.604;10.078;2023-07-24T10:04:57;99844.91;;;20.87;100.00
50103;BME280;35993;52.604;10.078;2023-07-24T10:07:24;99848.97;;;21.03;100.00
50103;BME280;35993;52.604;10.078;2023-07-24T10:09:50;99842.81;;;21.71;100.00
50103;BME280;35993;52.604;10.078;2023-07-24T10:12:19;99838.06;;;22.17;100.00
50103;BME280;35993;52.604;10.078;2023-07-24T10:14:46;99843.16;;;22.23;100.00
50103;BME280;35993;52.604;10.078;2023-07-24T10:17:12;99824.66;;;22.33;100.00
50103;BME280;35993;52.604;10.078;2023-07-24T10:19:42;99834.72;;;21.74;100.00
50103;BME280;35993;52.604;10.078;2023-07-24T10:22:17;99825.06;;;21.49;100.00
50103;BME280;35993;52.604;10.078;2023-07-24T10:24:45;99826.22;;;21.71;100.00
50103;BME280;35993;52.604;10.078;2023-07-24T10:27:11;99826.69;;;22.41;100.00
50103;BME280;35993;52.604;10.078;2023-07-24T10:29:37;99829.56;;;22.76;98.08
50103;BME280;35993;52.604;10.078;2023-07-24T10:32:03;99821.84;;;22.55;96.09
50103;BME280;35993;52.604;10.078;2023-07-24T10:34:38;99814.25;;;22.61;95.45
50103;BME280;35993;52.604;10.078;2023-07-24T10:37:07;99808.97;;;22.19;100.00
50103;BME280;35993;52.604;10.078;2023-07-24T10:39:38;99808.19;;;22.27;98.09
50103;BME280;35993;52.604;10.078;2023-07-24T10:42:09;99802.66;;;22.19;95.06
50103;BME280;35993;52.604;10.078;2023-07-24T10:44:36;99805.63;;;22.63;94.25
50103;BME280;35993;52.604;10.078;2023-07-24T10:47:01;99802.84;;;22.31;91.04
50103;BME280;35993;52.604;10.078;2023-07-24T10:49:27;99795.06;;;22.02;93.68
50103;BME280;35993;52.604;10.078;2023-07-24T10:51:57;99793.94;;;22.03;94.58
50103;BME280;35993;52.604;10.078;2023-07-24T10:54:22;99779.66;;;21.78;94.36
50103;BME280;35993;52.604;10.078;2023-07-24T10:56:48;99780.41;;;21.70;93.34
50103;BME280;35993;52.604;10.078;2023-07-24T10:59:13;99779.09;;;21.67;95.58
50103;BME280;35993;52.604;10.078;2023-07-24T11:01:40;99763.22;;;21.73;95.67
50103;BME280;35993;52.604;10.078;2023-07-24T11:04:06;99773.22;;;21.60;95.75
50103;BME280;35993;52.604;10.078;2023-07-24T11:06:33;99769.84;;;21.49;97.04
50103;BME280;35993;52.604;10.078;2023-07-24T11:08:59;99769.16;;;21.89;98.18
50103;BME280;35993;52.604;10.078;2023-07-24T11:11:29;99766.81;;;22.05;95.47
50103;BME280;35993;52.604;10.078;2023-07-24T11:13:55;99768.44;;;22.06;96.19
50103;BME280;35993;52.604;10.078;2023-07-24T11:16:20;99769.16;;;22.20;92.95
50103;BME280;35993;52.604;10.078;2023-07-24T11:18:47;99767.16;;;22.12;96.49
50103;BME280;35993;52.604;10.078;2023-07-24T11:21:13;99761.19;;;21.87;96.49
50103;BME280;35993;52.604;10.078;2023-07-24T11:23:47;99761.19;;;21.65;97.88
50103;BME280;35993;52.604;10.078;2023-07-24T11:26:13;99765.53;;;21.57;100.00
50103;BME280;35993;52.604;10.078;2023-07-24T11:28:40;99780.00;;;21.40;100.00
50103;BME280;35993;52.604;10.078;2023-07-24T11:31:05;99783.94;;;21.25;100.00
50103;BME280;35993;52.604;10.078;2023-07-24T11:33:31;99779.03;;;21.22;100.00
50103;BME280;35993;52.604;10.078;2023-07-24T11:35:57;99773.56;;;21.08;100.00
50103;BME280;35993;52.604;10.078;2023-07-24T11:38:23;99772.25;;;21.05;100.00
50103;BME280;35993;52.604;10.078;2023-07-24T11:40:49;99790.16;;;20.80;100.00
50103;BME280;35993;52.604;10.078;2023-07-24T11:43:17;99804.25;;;20.65;100.00
50103;BME280;35993;52.604;10.078;2023-07-24T11:45:44;99819.22;;;20.30;100.00
50103;BME280;35993;52.604;10.078;2023-07-24T11:48:11;99810.41;;;20.01;100.00
50103;BME280;35993;52.604;10.078;2023-07-24T11:50:49;99830.34;;;19.59;100.00
50103;BME280;35993;52.604;10.078;2023-07-24T11:53:24;99826.69;;;19.26;100.00
50103;BME280;35993;52.604;10.078;2023-07-24T11:55:52;99823.72;;;19.22;100.00
50103;BME280;35993;52.604;10.078;2023-07-24T11:58:18;99823.09;;;19.06;100.00
50103;BME280;35993;52.604;10.078;2023-07-24T12:00:45;99833.81;;;19.08;100.00
50103;BME280;35993;52.604;10.078;2023-07-24T12:03:11;99828.47;;;19.16;100.00
50103;BME280;35993;52.604;10.078;2023-07-24T12:05:41;99817.63;;;19.25;100.00
50103;BME280;35993;52.604;10.078;2023-07-24T12:08:11;99816.41;;;19.12;100.00
50103;BME280;35993;52.604;10.078;2023-07-24T12:10:37;99815.09;;;19.10;100.00
50103;BME280;35993;52.604;10.078;2023-07-24T12:13:04;99812.16;;;19.01;100.00
50103;BME280;35993;52.604;10.078;2023-07-24T12:15:31;99812.72;;;18.79;100.00
50103;BME280;35993;52.604;10.078;2023-07-24T12:17:56;99804.81;;;18.72;100.00
50103;BME280;35993;52.604;10.078;2023-07-24T12:20:23;99804.16;;;18.80;100.00
50103;BME280;35993;52.604;10.078;2023-07-24T12:22:49;99799.03;;;18.74;100.00
50103;BME280;35993;52.604;10.078;2023-07-24T12:25:14;99798.50;;;19.15;100.00
50103;BME280;35993;52.604;10.078;2023-07-24T12:27:41;99783.78;;;19.77;100.00
50103;BME280;35993;52.604;10.078;2023-07-24T12:30:07;99789.53;;;20.41;100.00
50103;BME280;35993;52.604;10.078;2023-07-24T12:32:33;99792.91;;;20.52;100.00
50103;BME280;35993;52.604;10.078;2023-07-24T12:34:59;99787.38;;;20.52;100.00
50103;BME280;35993;52.604;10.078;2023-07-24T12:37:24;99772.59;;;20.90;100.00
50103;BME280;35993;52.604;10.078;2023-07-24T12:39:50;99780.44;;;20.97;100.00